Ikarus — SWEW — position and weather

sailwx.info

Track history (hours):
 
Tides and Currents Weather Stations Pressure Air Temp Water Temp Dewpoint Dewpoint Depression Visibility Wind Speed Wind Dir Waves Ship Positions

Ikarus

Last reported at 2015-May-06 15:33 UTC. Time now 2015-May-06 16:32 UTC.
Position N 40°36' E 001°45'.

Length 200 m; draft 6.6 m.

Type: Ship. MMSI: 239513000.

Date/timePositionNaut miles runAvg speedWind from/ knotsBaromVisibWave heightAir tempDewpointWater temp
2015-May-06 15:33N 40°36' E 001°45'2121.0
2015-May-06 14:34N 40°17' E 001°33'2120.9
2015-May-06 13:33N 39°58' E 001°21'2420.3
2015-May-06 12:23N 39°37' E 001°08'1920.1
2015-May-06 11:28N 39°21' E 000°57'2020.6
2015-May-06 10:31N 39°03' E 000°45'1919.8
2015-May-06 09:32N 38°46' E 000°32'2019.8
2015-May-06 08:30N 38°29' E 000°20'2220.9
2015-May-06 07:28N 38°10' E 000°06'1820.2
2015-May-06 06:34N 37°55' W 000°08'2020.4
2015-May-06 05:33N 37°38' W 000°22'2020.4
2015-May-06 04:33N 37°23' W 000°39'2120.5
2015-May-06 03:33N 37°10' W 000°59'2120.7
2015-May-06 02:33N 36°57' W 001°19'2020.4
2015-May-06 01:33N 36°44' W 001°39'2120.5
2015-May-06 00:31N 36°31' W 001°60'2020.2
2015-May-05 23:33N 36°21' W 002°21'2121.2
2015-May-05 22:33N 36°18' W 002°47'11722.0
2015-May-05 17:14N 35°59' W 005°11'1819.9
2015-May-05 16:21N 35°53' W 005°31'3 0.5
2015-May-05 10:23N 35°56' W 005°30'11514.4
2015-May-05 02:24N 36°18' W 003°10'1413.7
2015-May-05 01:24N 36°20' W 002°53'1213.6
2015-May-05 00:33N 36°22' W 002°39'1413.6
2015-May-04 23:33N 36°25' W 002°23'1414.0
2015-May-04 22:33N 36°30' W 002°07'1414.4
2015-May-04 21:33N 36°39' W 001°53'1414.6
2015-May-04 20:33N 36°48' W 001°39'1514.7
2015-May-04 19:34N 36°58' W 001°25'1514.8
2015-May-04 18:33N 37°08' W 001°11'1514.8
2015-May-04 17:33N 37°18' W 000°57'1615.5
2015-May-04 16:34N 37°28' W 000°43'1515.4
2015-May-04 15:33N 37°39' W 000°29'1515.2
2015-May-04 14:33N 37°52' W 000°19'1615.6
2015-May-04 13:33N 38°05' W 000°08'1615.9
2015-May-04 12:33N 38°18' E 000°03'1615.8
2015-May-04 11:33N 38°32' E 000°14'1615.8
2015-May-04 10:33N 38°45' E 000°25'2015.8
2015-May-04 09:18N 39°02' E 000°37'1315.3
2015-May-04 08:29N 39°13' E 000°45'3015.6
2015-May-04 06:32N 39°40' E 001°04'1515.8
2015-May-04 05:33N 39°53' E 001°14'1615.7
2015-May-04 04:33N 40°07' E 001°24'1515.5
2015-May-04 03:33N 40°21' E 001°33'1515.3
2015-May-04 02:33N 40°35' E 001°42'1615.5
2015-May-04 01:33N 40°48' E 001°52'1616.1
2015-May-04 00:33N 41°02' E 002°02'1616.2
2015-May-03 23:33N 41°17' E 002°12'5 5.3
2015-May-03 22:33N 41°22' E 002°11'0 0.0
2015-May-03 21:33N 41°22' E 002°11'0 0.0
2015-May-03 20:33N 41°22' E 002°11'0 0.0
2015-May-03 19:33N 41°22' E 002°11'0 0.1
2015-May-03 18:33N 41°22' E 002°11'1111.4
2015-May-03 17:33N 41°23' E 002°26'1919.0
2015-May-03 16:33N 41°31' E 002°49'1918.9
2015-May-03 15:33N 41°39' E 003°12'1919.6
2015-May-03 14:33N 41°47' E 003°36'2219.5
2015-May-03 13:24N 41°57' E 004°03'22819.2
2015-May-03 01:33N 43°17' E 008°53'1918.7
2015-May-03 00:33N 43°23' E 009°18'1818.6
2015-May-02 23:33N 43°28' E 009°42'1918.9
2015-May-02 22:33N 43°30' E 010°08'9 8.7
2015-May-02 21:32N 43°35' E 010°18'0 0.0
2015-May-02 20:32N 43°35' E 010°18'0 0.0
2015-May-02 19:32N 43°35' E 010°18'0 0.0
2015-May-02 18:32N 43°35' E 010°18'0 0.0
2015-May-02 17:32N 43°35' E 010°18'0 0.0
2015-May-02 16:32N 43°35' E 010°18'0 0.0
2015-May-02 15:32N 43°35' E 010°18'0 0.0
2015-May-02 14:32N 43°35' E 010°18'0 0.0
2015-May-02 13:32N 43°35' E 010°18'0 0.0
2015-May-02 12:29N 43°35' E 010°18'0 0.0
2015-May-02 11:32N 43°35' E 010°18'0 0.0
2015-May-02 10:32N 43°35' E 010°18'0 0.0
2015-May-02 09:32N 43°35' E 010°18'0 0.0
2015-May-02 08:32N 43°35' E 010°18'0 0.0
2015-May-02 07:32N 43°35' E 010°18'0 0.0
2015-May-02 06:32N 43°35' E 010°18'0 0.0
2015-May-02 05:32N 43°35' E 010°18'0 0.0
2015-May-02 04:32N 43°35' E 010°18'0 0.0
2015-May-02 03:32N 43°35' E 010°18'0 0.0
2015-May-02 02:32N 43°35' E 010°18'0 0.0
2015-May-02 01:32N 43°35' E 010°18'0 0.0
2015-May-02 00:32N 43°35' E 010°18'0 0.0
2015-May-01 23:32N 43°35' E 010°18'0 0.0
2015-May-01 22:32N 43°35' E 010°18'0 0.0
2015-May-01 21:32N 43°35' E 010°18'0 0.0
2015-May-01 20:32N 43°35' E 010°18'0 0.0
2015-May-01 19:32N 43°35' E 010°18'0 0.0
2015-May-01 18:32N 43°35' E 010°18'0 0.0
2015-May-01 17:32N 43°35' E 010°18'0 0.0
2015-May-01 16:32N 43°35' E 010°18'0 0.0
2015-May-01 15:29N 43°35' E 010°18'0 0.0
2015-May-01 14:32N 43°35' E 010°18'0 0.0
2015-May-01 13:32N 43°35' E 010°18'0 0.0
2015-May-01 12:32N 43°35' E 010°18'0 0.0
2015-May-01 11:32N 43°35' E 010°18'0 0.0
2015-May-01 10:32N 43°35' E 010°18'0 0.0
2015-May-01 09:32N 43°35' E 010°18'0 0.0
2015-May-01 08:32N 43°35' E 010°18'0 0.0
2015-May-01 07:32N 43°35' E 010°18'0 0.0
2015-May-01 06:32N 43°35' E 010°18'0 0.0
2015-May-01 05:32N 43°35' E 010°18'0 0.0
2015-May-01 04:32N 43°35' E 010°18'0 0.0
2015-May-01 03:29N 43°35' E 010°18'0 0.0
2015-May-01 02:32N 43°35' E 010°18'0 0.0
2015-May-01 01:32N 43°35' E 010°18'0 0.0
2015-May-01 00:32N 43°35' E 010°18'0 0.0
2015-Apr-30 23:32N 43°35' E 010°18'0 0.0
2015-Apr-30 22:32N 43°35' E 010°18'0 0.0
2015-Apr-30 21:32N 43°35' E 010°18'0 0.0
2015-Apr-30 20:32N 43°35' E 010°18'0 0.0
2015-Apr-30 19:32N 43°35' E 010°18'0 0.5
2015-Apr-30 18:34N 43°34' E 010°18'6 6.0
2015-Apr-30 17:33N 43°30' E 010°13'1313.3
2015-Apr-30 16:33N 43°21' E 009°59'2020.5
2015-Apr-30 15:33N 43°13' E 009°33'2121.2
2015-Apr-30 14:33N 43°06' E 009°05'18720.8
2015-Apr-30 05:32N 42°03' E 005°06'2920.7
2015-Apr-30 04:08N 41°54' E 004°29'1220.8
2015-Apr-30 03:33N 41°50' E 004°14'2121.2
2015-Apr-30 02:33N 41°42' E 003°47'7618.6
2015-Apr-29 22:28N 41°20' E 002°10'2 2.3
2015-Apr-29 21:33N 41°22' E 002°11'0 0.0
2015-Apr-29 20:33N 41°22' E 002°11'0 0.0
2015-Apr-29 19:21N 41°22' E 002°11'0 0.0
2015-Apr-29 18:29N 41°22' E 002°11'8 9.2
2015-Apr-29 17:33N 41°13' E 002°09'2120.9
2015-Apr-29 16:33N 40°55' E 001°57'2121.4
2015-Apr-29 15:33N 40°36' E 001°45'2221.7
2015-Apr-29 14:34N 40°16' E 001°32'2121.2
2015-Apr-29 13:33N 39°57' E 001°20'8436.6
2015-Apr-29 11:15N 39°10' E 002°51'100142.2
2015-Apr-29 10:33N 38°60' E 000°43'2121.4
2015-Apr-29 09:33N 38°41' E 000°30'4221.0
2015-Apr-29 07:33N 38°05' E 000°01'2120.9
2015-Apr-29 06:33N 37°48' W 000°14'2121.1
2015-Apr-29 05:33N 37°31' W 000°28'2121.0
2015-Apr-29 04:33N 37°17' W 000°49'2421.7
2015-Apr-29 03:28N 37°02' W 001°11'2120.9
2015-Apr-29 02:29N 36°49' W 001°31'2321.3
2015-Apr-29 01:23N 36°34' W 001°54'1720.8
2015-Apr-29 00:34N 36°24' W 002°11'2120.6
2015-Apr-28 23:32N 36°19' W 002°36'2020.9
2015-Apr-28 22:34N 36°16' W 003°01'10621.3
2015-Apr-28 17:34N 35°59' W 005°11'15 2.1
2015-Apr-28 10:03N 35°56' W 005°30'612.3
2015-Apr-28 09:33N 35°60' W 005°24'10714.4
2015-Apr-28 02:06N 36°17' W 003°13'914.4
2015-Apr-28 01:27N 36°19' W 003°01'1314.1
2015-Apr-28 00:33N 36°21' W 002°46'1414.2
2015-Apr-27 23:33N 36°24' W 002°28'1414.6
2015-Apr-27 22:33N 36°27' W 002°11'1514.5
2015-Apr-27 21:33N 36°36' W 001°57'1514.7
2015-Apr-27 20:33N 36°46' W 001°43'1515.4
2015-Apr-27 19:33N 36°55' W 001°28'1815.4
2015-Apr-27 18:21N 37°08' W 001°11'1214.4
2015-Apr-27 17:33N 37°15' W 000°60'1514.6
2015-Apr-27 16:33N 37°25' W 000°46'1514.9
2015-Apr-27 15:33N 37°35' W 000°33'1514.9
2015-Apr-27 14:34N 37°48' W 000°22'1515.0
2015-Apr-27 13:33N 38°00' W 000°12'12014.9
2015-Apr-27 05:32N 39°44' E 001°06'1515.1
2015-Apr-27 04:33N 39°57' E 001°15'1615.7
2015-Apr-27 03:33N 40°11' E 001°24'1515.6
2015-Apr-27 02:33N 40°25' E 001°34'1515.0
2015-Apr-27 01:33N 40°38' E 001°43'1515.2
2015-Apr-27 00:33N 40°51' E 001°53'1515.5
2015-Apr-26 23:33N 41°05' E 002°02'1414.4
2015-Apr-26 22:33N 41°18' E 002°10'3 0.9
2015-Apr-26 18:31N 41°21' E 002°11'8 8.8
2015-Apr-26 17:33N 41°21' E 002°22'1919.5
2015-Apr-26 16:33N 41°29' E 002°45'  
Track history (hours):
 
Tides and Currents Weather Stations Pressure Air Temp Water Temp Dewpoint Dewpoint Depression Visibility Wind Speed Wind Dir Waves Ship Positions

Ikarus

Last reported at 2015-May-06 15:33 UTC. Time now 2015-May-06 16:32 UTC.
Position N 40°36' E 001°45'.

Length 200 m; draft 6.6 m.

Type: Ship. MMSI: 239513000.

Date/timePositionNaut miles runAvg speedWind from/ knotsBaromVisibWave heightAir tempDewpointWater temp
2015-May-06 15:33N 40°36' E 001°45'2121.0
2015-May-06 14:34N 40°17' E 001°33'2120.9
2015-May-06 13:33N 39°58' E 001°21'2420.3
2015-May-06 12:23N 39°37' E 001°08'1920.1
2015-May-06 11:28N 39°21' E 000°57'2020.6
2015-May-06 10:31N 39°03' E 000°45'1919.8
2015-May-06 09:32N 38°46' E 000°32'2019.8
2015-May-06 08:30N 38°29' E 000°20'2220.9
2015-May-06 07:28N 38°10' E 000°06'1820.2
2015-May-06 06:34N 37°55' W 000°08'2020.4
2015-May-06 05:33N 37°38' W 000°22'2020.4
2015-May-06 04:33N 37°23' W 000°39'2120.5
2015-May-06 03:33N 37°10' W 000°59'2120.7
2015-May-06 02:33N 36°57' W 001°19'2020.4
2015-May-06 01:33N 36°44' W 001°39'2120.5
2015-May-06 00:31N 36°31' W 001°60'2020.2
2015-May-05 23:33N 36°21' W 002°21'2121.2
2015-May-05 22:33N 36°18' W 002°47'11722.0
2015-May-05 17:14N 35°59' W 005°11'1819.9
2015-May-05 16:21N 35°53' W 005°31'3 0.5
2015-May-05 10:23N 35°56' W 005°30'11514.4
2015-May-05 02:24N 36°18' W 003°10'1413.7
2015-May-05 01:24N 36°20' W 002°53'1213.6
2015-May-05 00:33N 36°22' W 002°39'1413.6
2015-May-04 23:33N 36°25' W 002°23'1414.0
2015-May-04 22:33N 36°30' W 002°07'1414.4
2015-May-04 21:33N 36°39' W 001°53'1414.6
2015-May-04 20:33N 36°48' W 001°39'1514.7
2015-May-04 19:34N 36°58' W 001°25'1514.8
2015-May-04 18:33N 37°08' W 001°11'1514.8
2015-May-04 17:33N 37°18' W 000°57'1615.5
2015-May-04 16:34N 37°28' W 000°43'1515.4
2015-May-04 15:33N 37°39' W 000°29'1515.2
2015-May-04 14:33N 37°52' W 000°19'1615.6
2015-May-04 13:33N 38°05' W 000°08'1615.9
2015-May-04 12:33N 38°18' E 000°03'1615.8
2015-May-04 11:33N 38°32' E 000°14'1615.8
2015-May-04 10:33N 38°45' E 000°25'2015.8
2015-May-04 09:18N 39°02' E 000°37'1315.3
2015-May-04 08:29N 39°13' E 000°45'3015.6
2015-May-04 06:32N 39°40' E 001°04'1515.8
2015-May-04 05:33N 39°53' E 001°14'1615.7
2015-May-04 04:33N 40°07' E 001°24'1515.5
2015-May-04 03:33N 40°21' E 001°33'1515.3
2015-May-04 02:33N 40°35' E 001°42'1615.5
2015-May-04 01:33N 40°48' E 001°52'1616.1
2015-May-04 00:33N 41°02' E 002°02'1616.2
2015-May-03 23:33N 41°17' E 002°12'5 5.3
2015-May-03 22:33N 41°22' E 002°11'0 0.0
2015-May-03 21:33N 41°22' E 002°11'0 0.0
2015-May-03 20:33N 41°22' E 002°11'0 0.0
2015-May-03 19:33N 41°22' E 002°11'0 0.1
2015-May-03 18:33N 41°22' E 002°11'1111.4
2015-May-03 17:33N 41°23' E 002°26'1919.0
2015-May-03 16:33N 41°31' E 002°49'1918.9
2015-May-03 15:33N 41°39' E 003°12'1919.6
2015-May-03 14:33N 41°47' E 003°36'2219.5
2015-May-03 13:24N 41°57' E 004°03'22819.2
2015-May-03 01:33N 43°17' E 008°53'1918.7
2015-May-03 00:33N 43°23' E 009°18'1818.6
2015-May-02 23:33N 43°28' E 009°42'1918.9
2015-May-02 22:33N 43°30' E 010°08'9 8.7
2015-May-02 21:32N 43°35' E 010°18'0 0.0
2015-May-02 20:32N 43°35' E 010°18'0 0.0
2015-May-02 19:32N 43°35' E 010°18'0 0.0
2015-May-02 18:32N 43°35' E 010°18'0 0.0
2015-May-02 17:32N 43°35' E 010°18'0 0.0
2015-May-02 16:32N 43°35' E 010°18'0 0.0
2015-May-02 15:32N 43°35' E 010°18'0 0.0
2015-May-02 14:32N 43°35' E 010°18'0 0.0
2015-May-02 13:32N 43°35' E 010°18'0 0.0
2015-May-02 12:29N 43°35' E 010°18'0 0.0
2015-May-02 11:32N 43°35' E 010°18'0 0.0
2015-May-02 10:32N 43°35' E 010°18'0 0.0
2015-May-02 09:32N 43°35' E 010°18'0 0.0
2015-May-02 08:32N 43°35' E 010°18'0 0.0
2015-May-02 07:32N 43°35' E 010°18'0 0.0
2015-May-02 06:32N 43°35' E 010°18'0 0.0
2015-May-02 05:32N 43°35' E 010°18'0 0.0
2015-May-02 04:32N 43°35' E 010°18'0 0.0
2015-May-02 03:32N 43°35' E 010°18'0 0.0
2015-May-02 02:32N 43°35' E 010°18'0 0.0
2015-May-02 01:32N 43°35' E 010°18'0 0.0
2015-May-02 00:32N 43°35' E 010°18'0 0.0
2015-May-01 23:32N 43°35' E 010°18'0 0.0
2015-May-01 22:32N 43°35' E 010°18'0 0.0
2015-May-01 21:32N 43°35' E 010°18'0 0.0
2015-May-01 20:32N 43°35' E 010°18'0 0.0
2015-May-01 19:32N 43°35' E 010°18'0 0.0
2015-May-01 18:32N 43°35' E 010°18'0 0.0
2015-May-01 17:32N 43°35' E 010°18'0 0.0
2015-May-01 16:32N 43°35' E 010°18'0 0.0
2015-May-01 15:29N 43°35' E 010°18'0 0.0
2015-May-01 14:32N 43°35' E 010°18'0 0.0
2015-May-01 13:32N 43°35' E 010°18'0 0.0
2015-May-01 12:32N 43°35' E 010°18'0 0.0
2015-May-01 11:32N 43°35' E 010°18'0 0.0
2015-May-01 10:32N 43°35' E 010°18'0 0.0
2015-May-01 09:32N 43°35' E 010°18'0 0.0
2015-May-01 08:32N 43°35' E 010°18'0 0.0
2015-May-01 07:32N 43°35' E 010°18'0 0.0
2015-May-01 06:32N 43°35' E 010°18'0 0.0
2015-May-01 05:32N 43°35' E 010°18'0 0.0
2015-May-01 04:32N 43°35' E 010°18'0 0.0
2015-May-01 03:29N 43°35' E 010°18'0 0.0
2015-May-01 02:32N 43°35' E 010°18'0 0.0
2015-May-01 01:32N 43°35' E 010°18'0 0.0
2015-May-01 00:32N 43°35' E 010°18'0 0.0
2015-Apr-30 23:32N 43°35' E 010°18'0 0.0
2015-Apr-30 22:32N 43°35' E 010°18'0 0.0
2015-Apr-30 21:32N 43°35' E 010°18'0 0.0
2015-Apr-30 20:32N 43°35' E 010°18'0 0.0
2015-Apr-30 19:32N 43°35' E 010°18'0 0.5
2015-Apr-30 18:34N 43°34' E 010°18'6 6.0
2015-Apr-30 17:33N 43°30' E 010°13'1313.3
2015-Apr-30 16:33N 43°21' E 009°59'2020.5
2015-Apr-30 15:33N 43°13' E 009°33'2121.2
2015-Apr-30 14:33N 43°06' E 009°05'18720.8
2015-Apr-30 05:32N 42°03' E 005°06'2920.7
2015-Apr-30 04:08N 41°54' E 004°29'1220.8
2015-Apr-30 03:33N 41°50' E 004°14'2121.2
2015-Apr-30 02:33N 41°42' E 003°47'7618.6
2015-Apr-29 22:28N 41°20' E 002°10'2 2.3
2015-Apr-29 21:33N 41°22' E 002°11'0 0.0
2015-Apr-29 20:33N 41°22' E 002°11'0 0.0
2015-Apr-29 19:21N 41°22' E 002°11'0 0.0
2015-Apr-29 18:29N 41°22' E 002°11'8 9.2
2015-Apr-29 17:33N 41°13' E 002°09'2120.9
2015-Apr-29 16:33N 40°55' E 001°57'2121.4
2015-Apr-29 15:33N 40°36' E 001°45'2221.7
2015-Apr-29 14:34N 40°16' E 001°32'2121.2
2015-Apr-29 13:33N 39°57' E 001°20'8436.6
2015-Apr-29 11:15N 39°10' E 002°51'100142.2
2015-Apr-29 10:33N 38°60' E 000°43'2121.4
2015-Apr-29 09:33N 38°41' E 000°30'4221.0
2015-Apr-29 07:33N 38°05' E 000°01'2120.9
2015-Apr-29 06:33N 37°48' W 000°14'2121.1
2015-Apr-29 05:33N 37°31' W 000°28'2121.0
2015-Apr-29 04:33N 37°17' W 000°49'2421.7
2015-Apr-29 03:28N 37°02' W 001°11'2120.9
2015-Apr-29 02:29N 36°49' W 001°31'2321.3
2015-Apr-29 01:23N 36°34' W 001°54'1720.8
2015-Apr-29 00:34N 36°24' W 002°11'2120.6
2015-Apr-28 23:32N 36°19' W 002°36'2020.9
2015-Apr-28 22:34N 36°16' W 003°01'10621.3
2015-Apr-28 17:34N 35°59' W 005°11'15 2.1
2015-Apr-28 10:03N 35°56' W 005°30'612.3
2015-Apr-28 09:33N 35°60' W 005°24'10714.4
2015-Apr-28 02:06N 36°17' W 003°13'914.4
2015-Apr-28 01:27N 36°19' W 003°01'1314.1
2015-Apr-28 00:33N 36°21' W 002°46'1414.2
2015-Apr-27 23:33N 36°24' W 002°28'1414.6
2015-Apr-27 22:33N 36°27' W 002°11'1514.5
2015-Apr-27 21:33N 36°36' W 001°57'1514.7
2015-Apr-27 20:33N 36°46' W 001°43'1515.4
2015-Apr-27 19:33N 36°55' W 001°28'1815.4
2015-Apr-27 18:21N 37°08' W 001°11'1214.4
2015-Apr-27 17:33N 37°15' W 000°60'1514.6
2015-Apr-27 16:33N 37°25' W 000°46'1514.9
2015-Apr-27 15:33N 37°35' W 000°33'1514.9
2015-Apr-27 14:34N 37°48' W 000°22'1515.0
2015-Apr-27 13:33N 38°00' W 000°12'12014.9
2015-Apr-27 05:32N 39°44' E 001°06'1515.1
2015-Apr-27 04:33N 39°57' E 001°15'1615.7
2015-Apr-27 03:33N 40°11' E 001°24'1515.6
2015-Apr-27 02:33N 40°25' E 001°34'1515.0
2015-Apr-27 01:33N 40°38' E 001°43'1515.2
2015-Apr-27 00:33N 40°51' E 001°53'1515.5
2015-Apr-26 23:33N 41°05' E 002°02'1414.4
2015-Apr-26 22:33N 41°18' E 002°10'3 0.9
2015-Apr-26 18:31N 41°21' E 002°11'8 8.8
2015-Apr-26 17:33N 41°21' E 002°22'1919.5
2015-Apr-26 16:33N 41°29' E 002°45'  

Dump ship's entire track history